Main page
METAR-TAF:

METAR-TAF

Airports :

Larnaca, Cyprus

Larnaca International Airport

latitude: 34-53N, longitude: 033-38E, elevation: 2 m

Current weather observation

The report was made 29 minutes ago, at 07:00 UTC
Wind 7 kt from the South/Southeast
Temperature 23°C
Humidity 73%
Pressure 1013 hPa
Visibility 10 km or more
no clouds below 1500 m and no cumulonimbus

METAR: LCLK 260700Z 16007KT CAVOK 23/18 Q1013 NOSIG

Time: 10:29 (07:29 UTC)

Forecast

The report was made 1 hour and 59 minutes ago, at 05:30 UTC
Forecast valid from 26 at 06 UTC to 27 at 06 UTC
Wind 6 kt from the East
Visibility 10 km or more
Few clouds at a height of 2000 ft
Becoming
from 26 at 08 UTC to 26 at 11 UTC
Wind 18 kt from the South/Southwest
Becoming
from 26 at 15 UTC to 16 at 18 UTC
Wind 6 kt from the West/Southwest

TAF: LCLK 260530Z 2606/2706 10006KT 9999 FEW020 BECMG 2608/2611 21018KT BECMG 2615/1618 24006KT

Weather observations and forecasts of more than 4000 airports (METAR and TAF reports).

The available stations are represented by yellow and red dots on the map.

Hover mouse over dot to see the name of the station.

Then click to see weather observations and forecasts.

To change the map : click on the green buttons with a black cross to zoom in, on the green button with a dash to zoom out, or on the green arrows for adjacent maps.


METAR-TAF: